AFR182 LFPG-WSSS
Flight info
| Callsign | AFR182 |
|---|---|
| Flight time | N/A |
| Altitude | 29000 |
| Route | LANVI DCT BEGAR DCT TRA DCT GAMSA DCT GEDSO DCT LUMUS DCT BERTA DCT OKLOP DCT ETIDA DCT RIXEN/N0491F310 UA17 YAVRU UL615 BUK UW71 TBN UN61 NOLGA N61 LAGAS M747 LUSAL N701 LARGI B701 TUGTA A909 BABUM A477 RINIB/N0496F330 A477 POGON/K0917F330 T388 BUPOR Y92 OGNOB Z514 USETU Z407 BUTRA L181 POMIR Z407 FIRUZ/N0501F330 P500 MOTMO/N0502F320 P500 GERRY/N0501F330 P500 ATROL/N0505F320 P500 PS/N0507F330 T400 SULOM A466 DPN L759 ONATI/N0499F350 L759 PUT B579 VPL Y503 RINBA Y507 MAKNA Y511 TOPOR A464 ARAMA DCT TEBUN TEBUN1A |
| Aircraft | B77W/H-SDE1E2E3FGHIJ2J3J4J5M1RWXY/LB1D1 |
Departure
| Time | N/A |
|---|---|
| Airport | Charles de Gaulle International Airport (LFPG) |
Arrival
| Time | 2026-05-01 13:01 |
|---|---|
| Airport | Singapore Changi Airport (WSSS) |
| Time | Latitude | Longitude | Altitude | Speed | Heading |
|---|---|---|---|---|---|
| 2026-05-01 12:31 | 1.45247 | 103.19838 | 20795 ft | 401 kts | 160° |
| 2026-05-01 12:31 | 1.42464 | 103.20535 | 20678 ft | 423 kts | 166° |
| 2026-05-01 12:32 | 1.39576 | 103.21184 | 20525 ft | 436 kts | 163° |
| 2026-05-01 12:32 | 1.33868 | 103.22993 | 19497 ft | 432 kts | 157° |
| 2026-05-01 12:32 | 1.31060 | 103.24105 | 18843 ft | 433 kts | 156° |
| 2026-05-01 12:33 | 1.28299 | 103.25228 | 18243 ft | 420 kts | 156° |
| 2026-05-01 12:33 | 1.25632 | 103.26304 | 17335 ft | 408 kts | 156° |
| 2026-05-01 12:33 | 1.23129 | 103.27548 | 16301 ft | 398 kts | 144° |
| 2026-05-01 12:33 | 1.21082 | 103.29352 | 15264 ft | 390 kts | 129° |
| 2026-05-01 12:34 | 1.19504 | 103.31519 | 14398 ft | 384 kts | 118° |
| 2026-05-01 12:34 | 1.18267 | 103.33861 | 13948 ft | 380 kts | 116° |
| 2026-05-01 12:34 | 1.17067 | 103.36176 | 13403 ft | 380 kts | 116° |
| 2026-05-01 12:34 | 1.15850 | 103.38510 | 12858 ft | 377 kts | 116° |
| 2026-05-01 12:35 | 1.14638 | 103.40825 | 12351 ft | 375 kts | 117° |
| 2026-05-01 12:35 | 1.13429 | 103.43125 | 11834 ft | 372 kts | 117° |
| 2026-05-01 12:35 | 1.12226 | 103.45408 | 11341 ft | 370 kts | 117° |
| 2026-05-01 12:35 | 1.11036 | 103.47661 | 11035 ft | 362 kts | 117° |
| 2026-05-01 12:36 | 1.09881 | 103.49847 | 10913 ft | 350 kts | 117° |
| 2026-05-01 12:36 | 1.08765 | 103.51959 | 10769 ft | 339 kts | 117° |
| 2026-05-01 12:36 | 1.07763 | 103.54009 | 10521 ft | 328 kts | 109° |
| 2026-05-01 12:36 | 1.07338 | 103.56199 | 10445 ft | 316 kts | 92° |
| 2026-05-01 12:37 | 1.07385 | 103.58349 | 10370 ft | 303 kts | 87° |
| 2026-05-01 12:37 | 1.07514 | 103.60414 | 10281 ft | 292 kts | 87° |
| 2026-05-01 12:37 | 1.07642 | 103.62409 | 9728 ft | 289 kts | 87° |
| 2026-05-01 12:37 | 1.07771 | 103.64439 | 9237 ft | 293 kts | 87° |
| 2026-05-01 12:38 | 1.07896 | 103.66450 | 8963 ft | 288 kts | 87° |
| 2026-05-01 12:38 | 1.08016 | 103.68444 | 8620 ft | 287 kts | 87° |
| 2026-05-01 12:38 | 1.08133 | 103.70408 | 8287 ft | 285 kts | 87° |
| 2026-05-01 12:38 | 1.08248 | 103.72381 | 7948 ft | 284 kts | 87° |
| 2026-05-01 12:39 | 1.08363 | 103.74342 | 7633 ft | 282 kts | 87° |
| 2026-05-01 12:39 | 1.08475 | 103.76266 | 7343 ft | 279 kts | 87° |
| 2026-05-01 12:39 | 1.08586 | 103.78170 | 7177 ft | 271 kts | 87° |
| 2026-05-01 12:39 | 1.08786 | 103.80005 | 6961 ft | 262 kts | 73° |
| 2026-05-01 12:40 | 1.09639 | 103.81609 | 6648 ft | 264 kts | 54° |
| 2026-05-01 12:40 | 1.10622 | 103.83141 | 6113 ft | 263 kts | 66° |
| 2026-05-01 12:40 | 1.11328 | 103.84800 | 5853 ft | 255 kts | 69° |
| 2026-05-01 12:40 | 1.11953 | 103.86420 | 5549 ft | 245 kts | 70° |
| 2026-05-01 12:41 | 1.12555 | 103.87998 | 5091 ft | 242 kts | 70° |
| 2026-05-01 12:41 | 1.13145 | 103.89557 | 4612 ft | 238 kts | 70° |
| 2026-05-01 12:41 | 1.13719 | 103.91084 | 4101 ft | 231 kts | 70° |
| 2026-05-01 12:41 | 1.14272 | 103.92555 | 3648 ft | 230 kts | 70° |
| 2026-05-01 12:42 | 1.14830 | 103.94048 | 3391 ft | 226 kts | 70° |
| 2026-05-01 12:42 | 1.15140 | 103.95522 | 3208 ft | 213 kts | 96° |
| 2026-05-01 12:42 | 1.14610 | 103.96828 | 3046 ft | 199 kts | 132° |
| 2026-05-01 12:42 | 1.13466 | 103.97484 | 2889 ft | 193 kts | 171° |
| 2026-05-01 12:43 | 1.12167 | 103.97251 | 2917 ft | 196 kts | 209° |
| 2026-05-01 12:43 | 1.11256 | 103.96252 | 2790 ft | 199 kts | 247° |
| 2026-05-01 12:43 | 1.11142 | 103.94923 | 2664 ft | 196 kts | 286° |
| 2026-05-01 12:43 | 1.11871 | 103.93820 | 2601 ft | 193 kts | 325° |
| 2026-05-01 12:44 | 1.13105 | 103.93328 | 2563 ft | 193 kts | 348° |
| 2026-05-01 12:44 | 1.14416 | 103.93044 | 2515 ft | 192 kts | 350° |
| 2026-05-01 12:44 | 1.17010 | 103.92508 | 2512 ft | 189 kts | 350° |
| 2026-05-01 12:45 | 1.19579 | 103.91987 | 2522 ft | 188 kts | 351° |
| 2026-05-01 12:45 | 1.20857 | 103.92021 | 2519 ft | 187 kts | 19° |
| 2026-05-01 12:45 | 1.22106 | 103.92415 | 2533 ft | 193 kts | 20° |
| 2026-05-01 12:46 | 1.23369 | 103.92870 | 2377 ft | 193 kts | 23° |
| 2026-05-01 12:46 | 1.24572 | 103.93367 | 2120 ft | 180 kts | 24° |
| 2026-05-01 12:46 | 1.25674 | 103.93834 | 1894 ft | 162 kts | 25° |
| 2026-05-01 12:46 | 1.26655 | 103.94250 | 1725 ft | 150 kts | 25° |
| 2026-05-01 12:47 | 1.27622 | 103.94662 | 1525 ft | 152 kts | 25° |
| 2026-05-01 12:47 | 1.28587 | 103.95071 | 1321 ft | 151 kts | 25° |
| 2026-05-01 12:47 | 1.29229 | 103.95343 | 1208 ft | 151 kts | 25° |
| 2026-05-01 12:47 | 1.29666 | 103.95529 | 1117 ft | 151 kts | 25° |
| 2026-05-01 12:48 | 1.30631 | 103.95939 | 913 ft | 150 kts | 24° |
| 2026-05-01 12:48 | 1.31577 | 103.96348 | 773 ft | 148 kts | 25° |
| 2026-05-01 12:48 | 1.32528 | 103.96770 | 627 ft | 151 kts | 22° |
| 2026-05-01 12:48 | 1.33499 | 103.97171 | 423 ft | 151 kts | 21° |
| 2026-05-01 12:49 | 1.34471 | 103.97565 | 207 ft | 150 kts | 22° |
| 2026-05-01 12:49 | 1.35406 | 103.97961 | 47 ft | 135 kts | 24° |
| 2026-05-01 12:49 | 1.36288 | 103.98354 | 332 ft | 155 kts | 24° |
| 2026-05-01 12:49 | 1.37374 | 103.98839 | 995 ft | 165 kts | 25° |
| 2026-05-01 12:50 | 1.38361 | 103.99281 | 1110 ft | 156 kts | 26° |
| 2026-05-01 12:50 | 1.39372 | 103.99747 | 976 ft | 163 kts | 26° |
| 2026-05-01 12:50 | 1.40457 | 104.00254 | 960 ft | 187 kts | 26° |
| 2026-05-01 12:50 | 1.41662 | 104.00863 | 1339 ft | 198 kts | 39° |
| 2026-05-01 12:51 | 1.42491 | 104.02006 | 2102 ft | 217 kts | 74° |
| 2026-05-01 12:51 | 1.42540 | 104.03546 | 2954 ft | 230 kts | 102° |
| 2026-05-01 12:51 | 1.40739 | 104.06322 | 3991 ft | 257 kts | 149° |
| 2026-05-01 12:52 | 1.39020 | 104.06856 | 3991 ft | 264 kts | 177° |
| 2026-05-01 12:52 | 1.35474 | 104.06178 | 4004 ft | 261 kts | 194° |
| 2026-05-01 12:52 | 1.33724 | 104.05699 | 4003 ft | 260 kts | 195° |
| 2026-05-01 12:53 | 1.30254 | 104.04726 | 4003 ft | 262 kts | 195° |
| 2026-05-01 12:53 | 1.28503 | 104.04228 | 4001 ft | 262 kts | 195° |
| 2026-05-01 12:53 | 1.26754 | 104.03727 | 3994 ft | 261 kts | 195° |
| 2026-05-01 12:54 | 1.25007 | 104.03227 | 3992 ft | 261 kts | 195° |
| 2026-05-01 12:54 | 1.21638 | 104.02044 | 3993 ft | 257 kts | 210° |
| 2026-05-01 12:54 | 1.20395 | 104.00812 | 3994 ft | 252 kts | 236° |
| 2026-05-01 12:55 | 1.18538 | 103.97777 | 3666 ft | 261 kts | 238° |
| 2026-05-01 12:55 | 1.17613 | 103.96258 | 3335 ft | 248 kts | 238° |
| 2026-05-01 12:55 | 1.16745 | 103.94831 | 3063 ft | 231 kts | 238° |
| 2026-05-01 12:56 | 1.16050 | 103.93477 | 2807 ft | 211 kts | 256° |
| 2026-05-01 12:56 | 1.16164 | 103.92097 | 2578 ft | 195 kts | 298° |
| 2026-05-01 12:56 | 1.17136 | 103.91169 | 2563 ft | 198 kts | 339° |
| 2026-05-01 12:56 | 1.18446 | 103.91068 | 2508 ft | 191 kts | 15° |
| 2026-05-01 12:57 | 1.19709 | 103.91431 | 2508 ft | 189 kts | 18° |
| 2026-05-01 12:57 | 1.22183 | 103.92357 | 2506 ft | 190 kts | 24° |
| 2026-05-01 12:57 | 1.23412 | 103.92875 | 2366 ft | 193 kts | 25° |
| 2026-05-01 12:58 | 1.24627 | 103.93391 | 2108 ft | 185 kts | 24° |
| 2026-05-01 12:58 | 1.25762 | 103.93872 | 1875 ft | 168 kts | 24° |
| 2026-05-01 12:58 | 1.26774 | 103.94301 | 1693 ft | 151 kts | 25° |
| 2026-05-01 12:59 | 1.28674 | 103.95108 | 1305 ft | 150 kts | 24° |
| 2026-05-01 12:59 | 1.29638 | 103.95517 | 1123 ft | 151 kts | 25° |
| 2026-05-01 12:59 | 1.31543 | 103.96324 | 730 ft | 147 kts | 24° |
| 2026-05-01 13:00 | 1.33443 | 103.97131 | 372 ft | 148 kts | 22° |
| 2026-05-01 13:00 | 1.34394 | 103.97530 | 203 ft | 148 kts | 22° |
| 2026-05-01 13:01 | 1.36067 | 103.98237 | 36 ft | 92 kts | 22° |
| 2026-05-01 13:01 | 1.36488 | 103.98419 | 38 ft | 41 kts | 23° |
| 2026-05-01 13:01 | 1.36763 | 103.98648 | 37 ft | 20 kts | 51° |
| 2026-05-01 13:02 | 1.36828 | 103.98752 | 37 ft | 13 kts | 78° |